<?xml version='1.0' encoding='UTF-8'?>
<gpx version="1.1" creator="https://www.komoot.de" xmlns="http://www.topografix.com/GPX/1/1" xmlns:xsi="http://www.w3.org/2001/XMLSchema-instance" xsi:schemaLocation="http://www.topografix.com/GPX/1/1 http://www.topografix.com/GPX/1/1/gpx.xsd">
  <metadata>
    <name>Modern Warsaw – Skylines &amp; Skyscrapers | Warsaw By Bike</name>
    <author>
      <link href="https://www.komoot.de">
        <text>komoot</text>
        <type>text/html</type>
      </link>
    </author>
  </metadata>
  <trk>
    <name>Modern Warsaw – Skylines &amp; Skyscrapers | Warsaw By Bike</name>
    <trkseg>
      <trkpt lat="52.252881" lon="20.983614">
        <ele>103.860114</ele>
        <time>2026-02-06T13:54:06.343Z</time>
      </trkpt>
      <trkpt lat="52.252974" lon="20.983534">
        <ele>103.860114</ele>
        <time>2026-02-06T13:54:09.340Z</time>
      </trkpt>
      <trkpt lat="52.252983" lon="20.983526">
        <ele>103.860114</ele>
        <time>2026-02-06T13:54:09.655Z</time>
      </trkpt>
      <trkpt lat="52.252993" lon="20.983517">
        <ele>103.860114</ele>
        <time>2026-02-06T13:54:09.995Z</time>
      </trkpt>
      <trkpt lat="52.253167" lon="20.983366">
        <ele>103.860114</ele>
        <time>2026-02-06T13:54:15.781Z</time>
      </trkpt>
      <trkpt lat="52.253240" lon="20.983235">
        <ele>103.860114</ele>
        <time>2026-02-06T13:54:18.734Z</time>
      </trkpt>
      <trkpt lat="52.253276" lon="20.983213">
        <ele>103.860114</ele>
        <time>2026-02-06T13:54:19.914Z</time>
      </trkpt>
      <trkpt lat="52.253299" lon="20.983197">
        <ele>103.860114</ele>
        <time>2026-02-06T13:54:20.461Z</time>
      </trkpt>
      <trkpt lat="52.253319" lon="20.983182">
        <ele>103.860114</ele>
        <time>2026-02-06T13:54:20.919Z</time>
      </trkpt>
      <trkpt lat="52.253356" lon="20.983160">
        <ele>103.860114</ele>
        <time>2026-02-06T13:54:21.916Z</time>
      </trkpt>
      <trkpt lat="52.253374" lon="20.983140">
        <ele>103.860114</ele>
        <time>2026-02-06T13:54:22.361Z</time>
      </trkpt>
      <trkpt lat="52.253300" lon="20.982871">
        <ele>103.860114</ele>
        <time>2026-02-06T13:54:26.164Z</time>
      </trkpt>
      <trkpt lat="52.253255" lon="20.982818">
        <ele>103.860114</ele>
        <time>2026-02-06T13:54:27.386Z</time>
      </trkpt>
      <trkpt lat="52.253253" lon="20.982799">
        <ele>103.860114</ele>
        <time>2026-02-06T13:54:27.617Z</time>
      </trkpt>
      <trkpt lat="52.253213" lon="20.982495">
        <ele>103.815139</ele>
        <time>2026-02-06T13:54:31.487Z</time>
      </trkpt>
      <trkpt lat="52.253217" lon="20.982334">
        <ele>103.777439</ele>
        <time>2026-02-06T13:54:33.708Z</time>
      </trkpt>
      <trkpt lat="52.253229" lon="20.982087">
        <ele>103.719467</ele>
        <time>2026-02-06T13:54:36.890Z</time>
      </trkpt>
      <trkpt lat="52.253237" lon="20.981925">
        <ele>103.681440</ele>
        <time>2026-02-06T13:54:38.895Z</time>
      </trkpt>
      <trkpt lat="52.253246" lon="20.981767">
        <ele>103.644314</ele>
        <time>2026-02-06T13:54:40.868Z</time>
      </trkpt>
      <trkpt lat="52.253250" lon="20.981712">
        <ele>103.631355</ele>
        <time>2026-02-06T13:54:41.535Z</time>
      </trkpt>
      <trkpt lat="52.253187" lon="20.981696">
        <ele>103.606987</ele>
        <time>2026-02-06T13:54:42.940Z</time>
      </trkpt>
      <trkpt lat="52.253157" lon="20.981689">
        <ele>103.595405</ele>
        <time>2026-02-06T13:54:43.561Z</time>
      </trkpt>
      <trkpt lat="52.253118" lon="20.981630">
        <ele>103.575089</ele>
        <time>2026-02-06T13:54:44.546Z</time>
      </trkpt>
      <trkpt lat="52.253003" lon="20.981575">
        <ele>103.529292</ele>
        <time>2026-02-06T13:54:47.098Z</time>
      </trkpt>
      <trkpt lat="52.251675" lon="20.980933">
        <ele>103.217005</ele>
        <time>2026-02-06T13:55:16.115Z</time>
      </trkpt>
      <trkpt lat="52.251170" lon="20.980684">
        <ele>103.268746</ele>
        <time>2026-02-06T13:55:27.497Z</time>
      </trkpt>
      <trkpt lat="52.250781" lon="20.980552">
        <ele>103.307716</ele>
        <time>2026-02-06T13:55:36.576Z</time>
      </trkpt>
      <trkpt lat="52.250312" lon="20.980340">
        <ele>103.420193</ele>
        <time>2026-02-06T13:55:48.410Z</time>
      </trkpt>
      <trkpt lat="52.250279" lon="20.980328">
        <ele>103.457354</ele>
        <time>2026-02-06T13:55:49.292Z</time>
      </trkpt>
      <trkpt lat="52.250241" lon="20.980313">
        <ele>103.500326</ele>
        <time>2026-02-06T13:55:50.300Z</time>
      </trkpt>
      <trkpt lat="52.250209" lon="20.980302">
        <ele>103.536270</ele>
        <time>2026-02-06T13:55:51.140Z</time>
      </trkpt>
      <trkpt lat="52.250158" lon="20.980280">
        <ele>103.594251</ele>
        <time>2026-02-06T13:55:52.536Z</time>
      </trkpt>
      <trkpt lat="52.250128" lon="20.980266">
        <ele>103.628546</ele>
        <time>2026-02-06T13:55:53.366Z</time>
      </trkpt>
      <trkpt lat="52.250110" lon="20.980258">
        <ele>103.649051</ele>
        <time>2026-02-06T13:55:53.874Z</time>
      </trkpt>
      <trkpt lat="52.250083" lon="20.980246">
        <ele>103.679808</ele>
        <time>2026-02-06T13:55:54.600Z</time>
      </trkpt>
      <trkpt lat="52.250048" lon="20.980231">
        <ele>103.719581</ele>
        <time>2026-02-06T13:55:55.592Z</time>
      </trkpt>
      <trkpt lat="52.249994" lon="20.980207">
        <ele>103.781095</ele>
        <time>2026-02-06T13:55:57.132Z</time>
      </trkpt>
      <trkpt lat="52.249235" lon="20.979883">
        <ele>104.643399</ele>
        <time>2026-02-06T13:56:19.184Z</time>
      </trkpt>
      <trkpt lat="52.248574" lon="20.979630">
        <ele>105.344513</ele>
        <time>2026-02-06T13:56:37.636Z</time>
      </trkpt>
      <trkpt lat="52.248053" lon="20.979360">
        <ele>105.518279</ele>
        <time>2026-02-06T13:56:50.882Z</time>
      </trkpt>
      <trkpt lat="52.248013" lon="20.979339">
        <ele>105.531636</ele>
        <time>2026-02-06T13:56:51.814Z</time>
      </trkpt>
      <trkpt lat="52.247978" lon="20.979321">
        <ele>105.543301</ele>
        <time>2026-02-06T13:56:52.646Z</time>
      </trkpt>
      <trkpt lat="52.247454" lon="20.978853">
        <ele>105.733162</ele>
        <time>2026-02-06T13:57:06.323Z</time>
      </trkpt>
      <trkpt lat="52.246477" lon="20.977801">
        <ele>105.908074</ele>
        <time>2026-02-06T13:57:32.357Z</time>
      </trkpt>
      <trkpt lat="52.246145" lon="20.977566">
        <ele>105.913695</ele>
        <time>2026-02-06T13:57:40.624Z</time>
      </trkpt>
      <trkpt lat="52.245996" lon="20.977523">
        <ele>105.916046</ele>
        <time>2026-02-06T13:57:44.003Z</time>
      </trkpt>
      <trkpt lat="52.245969" lon="20.977516">
        <ele>105.916471</ele>
        <time>2026-02-06T13:57:44.612Z</time>
      </trkpt>
      <trkpt lat="52.245935" lon="20.977508">
        <ele>105.917004</ele>
        <time>2026-02-06T13:57:45.367Z</time>
      </trkpt>
      <trkpt lat="52.245625" lon="20.977440">
        <ele>105.921863</ele>
        <time>2026-02-06T13:57:52.124Z</time>
      </trkpt>
      <trkpt lat="52.245340" lon="20.977441">
        <ele>105.934089</ele>
        <time>2026-02-06T13:57:58.322Z</time>
      </trkpt>
      <trkpt lat="52.245045" lon="20.977504">
        <ele>106.028505</ele>
        <time>2026-02-06T13:58:04.942Z</time>
      </trkpt>
      <trkpt lat="52.244526" lon="20.977715">
        <ele>106.198238</ele>
        <time>2026-02-06T13:58:16.950Z</time>
      </trkpt>
      <trkpt lat="52.244486" lon="20.977737">
        <ele>106.211633</ele>
        <time>2026-02-06T13:58:17.931Z</time>
      </trkpt>
      <trkpt lat="52.244451" lon="20.977766">
        <ele>106.224088</ele>
        <time>2026-02-06T13:58:18.837Z</time>
      </trkpt>
      <trkpt lat="52.244418" lon="20.977785">
        <ele>106.235192</ele>
        <time>2026-02-06T13:58:19.628Z</time>
      </trkpt>
      <trkpt lat="52.244370" lon="20.977809">
        <ele>106.251123</ele>
        <time>2026-02-06T13:58:20.791Z</time>
      </trkpt>
      <trkpt lat="52.244343" lon="20.977823">
        <ele>106.260113</ele>
        <time>2026-02-06T13:58:21.453Z</time>
      </trkpt>
      <trkpt lat="52.244322" lon="20.977834">
        <ele>106.267112</ele>
        <time>2026-02-06T13:58:21.964Z</time>
      </trkpt>
      <trkpt lat="52.244297" lon="20.977846">
        <ele>106.275381</ele>
        <time>2026-02-06T13:58:22.550Z</time>
      </trkpt>
      <trkpt lat="52.244275" lon="20.977857">
        <ele>106.282683</ele>
        <time>2026-02-06T13:58:23.092Z</time>
      </trkpt>
      <trkpt lat="52.244215" lon="20.977874">
        <ele>106.302009</ele>
        <time>2026-02-06T13:58:24.509Z</time>
      </trkpt>
      <trkpt lat="52.244135" lon="20.977873">
        <ele>106.327398</ele>
        <time>2026-02-06T13:58:26.384Z</time>
      </trkpt>
      <trkpt lat="52.242814" lon="20.978427">
        <ele>107.140323</ele>
        <time>2026-02-06T13:59:01.448Z</time>
      </trkpt>
      <trkpt lat="52.242715" lon="20.978442">
        <ele>107.217387</ele>
        <time>2026-02-06T13:59:04.083Z</time>
      </trkpt>
      <trkpt lat="52.242692" lon="20.978451">
        <ele>107.235718</ele>
        <time>2026-02-06T13:59:04.721Z</time>
      </trkpt>
      <trkpt lat="52.242670" lon="20.978461">
        <ele>107.253418</ele>
        <time>2026-02-06T13:59:05.326Z</time>
      </trkpt>
      <trkpt lat="52.242652" lon="20.978469">
        <ele>107.267877</ele>
        <time>2026-02-06T13:59:05.831Z</time>
      </trkpt>
      <trkpt lat="52.242633" lon="20.978478">
        <ele>107.283211</ele>
        <time>2026-02-06T13:59:06.355Z</time>
      </trkpt>
      <trkpt lat="52.242615" lon="20.978486">
        <ele>107.297670</ele>
        <time>2026-02-06T13:59:06.832Z</time>
      </trkpt>
      <trkpt lat="52.241876" lon="20.978793">
        <ele>107.888703</ele>
        <time>2026-02-06T13:59:26.228Z</time>
      </trkpt>
      <trkpt lat="52.241773" lon="20.978833">
        <ele>107.911510</ele>
        <time>2026-02-06T13:59:28.820Z</time>
      </trkpt>
      <trkpt lat="52.240008" lon="20.979525">
        <ele>108.234505</ele>
        <time>2026-02-06T14:00:10.177Z</time>
      </trkpt>
      <trkpt lat="52.239967" lon="20.979552">
        <ele>108.228121</ele>
        <time>2026-02-06T14:00:11.168Z</time>
      </trkpt>
      <trkpt lat="52.239936" lon="20.979564">
        <ele>108.223521</ele>
        <time>2026-02-06T14:00:11.847Z</time>
      </trkpt>
      <trkpt lat="52.239902" lon="20.979577">
        <ele>108.218479</ele>
        <time>2026-02-06T14:00:12.606Z</time>
      </trkpt>
      <trkpt lat="52.239836" lon="20.979602">
        <ele>108.208695</ele>
        <time>2026-02-06T14:00:14.033Z</time>
      </trkpt>
      <trkpt lat="52.239786" lon="20.979612">
        <ele>108.201422</ele>
        <time>2026-02-06T14:00:15.119Z</time>
      </trkpt>
      <trkpt lat="52.239743" lon="20.979619">
        <ele>108.195182</ele>
        <time>2026-02-06T14:00:16.040Z</time>
      </trkpt>
      <trkpt lat="52.238469" lon="20.980103">
        <ele>108.006307</ele>
        <time>2026-02-06T14:00:44.099Z</time>
      </trkpt>
      <trkpt lat="52.238447" lon="20.980116">
        <ele>108.002929</ele>
        <time>2026-02-06T14:00:44.597Z</time>
      </trkpt>
      <trkpt lat="52.238417" lon="20.980153">
        <ele>107.997500</ele>
        <time>2026-02-06T14:00:45.364Z</time>
      </trkpt>
      <trkpt lat="52.238393" lon="20.980170">
        <ele>107.993722</ele>
        <time>2026-02-06T14:00:45.902Z</time>
      </trkpt>
      <trkpt lat="52.238329" lon="20.980195">
        <ele>107.994881</ele>
        <time>2026-02-06T14:00:47.289Z</time>
      </trkpt>
      <trkpt lat="52.238256" lon="20.980224">
        <ele>107.998776</ele>
        <time>2026-02-06T14:00:48.864Z</time>
      </trkpt>
      <trkpt lat="52.238223" lon="20.980227">
        <ele>108.000489</ele>
        <time>2026-02-06T14:00:49.559Z</time>
      </trkpt>
      <trkpt lat="52.238184" lon="20.980207">
        <ele>108.002608</ele>
        <time>2026-02-06T14:00:50.471Z</time>
      </trkpt>
      <trkpt lat="52.237449" lon="20.980433">
        <ele>108.041376</ele>
        <time>2026-02-06T14:01:07.220Z</time>
      </trkpt>
      <trkpt lat="52.237353" lon="20.980435">
        <ele>108.046353</ele>
        <time>2026-02-06T14:01:09.467Z</time>
      </trkpt>
      <trkpt lat="52.237309" lon="20.980431">
        <ele>108.048637</ele>
        <time>2026-02-06T14:01:10.489Z</time>
      </trkpt>
      <trkpt lat="52.237259" lon="20.980449">
        <ele>108.051291</ele>
        <time>2026-02-06T14:01:11.660Z</time>
      </trkpt>
      <trkpt lat="52.237198" lon="20.980474">
        <ele>108.054551</ele>
        <time>2026-02-06T14:01:13.072Z</time>
      </trkpt>
      <trkpt lat="52.237183" lon="20.980480">
        <ele>108.055352</ele>
        <time>2026-02-06T14:01:13.425Z</time>
      </trkpt>
      <trkpt lat="52.237098" lon="20.980513">
        <ele>108.059880</ele>
        <time>2026-02-06T14:01:15.416Z</time>
      </trkpt>
      <trkpt lat="52.237066" lon="20.980525">
        <ele>108.061582</ele>
        <time>2026-02-06T14:01:16.169Z</time>
      </trkpt>
      <trkpt lat="52.237017" lon="20.980546">
        <ele>108.064208</ele>
        <time>2026-02-06T14:01:17.275Z</time>
      </trkpt>
      <trkpt lat="52.236942" lon="20.980577">
        <ele>108.068219</ele>
        <time>2026-02-06T14:01:18.969Z</time>
      </trkpt>
      <trkpt lat="52.236836" lon="20.980631">
        <ele>108.073974</ele>
        <time>2026-02-06T14:01:21.383Z</time>
      </trkpt>
      <trkpt lat="52.236766" lon="20.980612">
        <ele>108.077653</ele>
        <time>2026-02-06T14:01:22.986Z</time>
      </trkpt>
      <trkpt lat="52.235778" lon="20.980905">
        <ele>108.223941</ele>
        <time>2026-02-06T14:01:46.463Z</time>
      </trkpt>
      <trkpt lat="52.235735" lon="20.980928">
        <ele>108.231264</ele>
        <time>2026-02-06T14:01:47.531Z</time>
      </trkpt>
      <trkpt lat="52.235695" lon="20.980944">
        <ele>108.237929</ele>
        <time>2026-02-06T14:01:48.480Z</time>
      </trkpt>
      <trkpt lat="52.235652" lon="20.980956">
        <ele>108.244989</ele>
        <time>2026-02-06T14:01:49.508Z</time>
      </trkpt>
      <trkpt lat="52.235627" lon="20.980963">
        <ele>108.249094</ele>
        <time>2026-02-06T14:01:50.074Z</time>
      </trkpt>
      <trkpt lat="52.235608" lon="20.980968">
        <ele>108.252208</ele>
        <time>2026-02-06T14:01:50.520Z</time>
      </trkpt>
      <trkpt lat="52.235586" lon="20.980976">
        <ele>108.255856</ele>
        <time>2026-02-06T14:01:51.026Z</time>
      </trkpt>
      <trkpt lat="52.235545" lon="20.980991">
        <ele>108.262656</ele>
        <time>2026-02-06T14:01:51.991Z</time>
      </trkpt>
      <trkpt lat="52.235492" lon="20.981017">
        <ele>108.271612</ele>
        <time>2026-02-06T14:01:53.269Z</time>
      </trkpt>
      <trkpt lat="52.235167" lon="20.981208">
        <ele>108.327514</ele>
        <time>2026-02-06T14:02:01.132Z</time>
      </trkpt>
      <trkpt lat="52.234691" lon="20.981609">
        <ele>108.385393</ele>
        <time>2026-02-06T14:02:13.169Z</time>
      </trkpt>
      <trkpt lat="52.234383" lon="20.981836">
        <ele>108.398415</ele>
        <time>2026-02-06T14:02:20.511Z</time>
      </trkpt>
      <trkpt lat="52.233978" lon="20.982204">
        <ele>108.416275</ele>
        <time>2026-02-06T14:02:30.821Z</time>
      </trkpt>
      <trkpt lat="52.233773" lon="20.982347">
        <ele>108.424866</ele>
        <time>2026-02-06T14:02:35.728Z</time>
      </trkpt>
      <trkpt lat="52.233512" lon="20.982457">
        <ele>108.435253</ele>
        <time>2026-02-06T14:02:41.819Z</time>
      </trkpt>
      <trkpt lat="52.233472" lon="20.982487">
        <ele>108.436949</ele>
        <time>2026-02-06T14:02:42.776Z</time>
      </trkpt>
      <trkpt lat="52.233457" lon="20.982565">
        <ele>108.438878</ele>
        <time>2026-02-06T14:02:44.016Z</time>
      </trkpt>
      <trkpt lat="52.233388" lon="20.982606">
        <ele>108.441708</ele>
        <time>2026-02-06T14:02:45.604Z</time>
      </trkpt>
      <trkpt lat="52.233348" lon="20.982623">
        <ele>108.443301</ele>
        <time>2026-02-06T14:02:46.517Z</time>
      </trkpt>
      <trkpt lat="52.233300" lon="20.982643">
        <ele>108.445210</ele>
        <time>2026-02-06T14:02:47.714Z</time>
      </trkpt>
      <trkpt lat="52.233201" lon="20.982650">
        <ele>108.403519</ele>
        <time>2026-02-06T14:02:49.872Z</time>
      </trkpt>
      <trkpt lat="52.233151" lon="20.982662">
        <ele>108.378825</ele>
        <time>2026-02-06T14:02:51.103Z</time>
      </trkpt>
      <trkpt lat="52.232564" lon="20.983025">
        <ele>108.072112</ele>
        <time>2026-02-06T14:03:05.783Z</time>
      </trkpt>
      <trkpt lat="52.231805" lon="20.983633">
        <ele>107.659006</ele>
        <time>2026-02-06T14:03:22.314Z</time>
      </trkpt>
      <trkpt lat="52.231662" lon="20.983777">
        <ele>107.576910</ele>
        <time>2026-02-06T14:03:26.515Z</time>
      </trkpt>
      <trkpt lat="52.231618" lon="20.983818">
        <ele>107.557831</ele>
        <time>2026-02-06T14:03:27.486Z</time>
      </trkpt>
      <trkpt lat="52.231634" lon="20.983870">
        <ele>107.547156</ele>
        <time>2026-02-06T14:03:28.126Z</time>
      </trkpt>
      <trkpt lat="52.231669" lon="20.983838">
        <ele>107.535142</ele>
        <time>2026-02-06T14:03:30.955Z</time>
      </trkpt>
      <trkpt lat="52.231779" lon="20.983743">
        <ele>107.497873</ele>
        <time>2026-02-06T14:03:39.571Z</time>
      </trkpt>
      <trkpt lat="52.231917" lon="20.983626">
        <ele>107.451303</ele>
        <time>2026-02-06T14:03:50.364Z</time>
      </trkpt>
      <trkpt lat="52.232005" lon="20.983659">
        <ele>107.424261</ele>
        <time>2026-02-06T14:03:56.686Z</time>
      </trkpt>
      <trkpt lat="52.232140" lon="20.983617">
        <ele>107.383102</ele>
        <time>2026-02-06T14:04:06.224Z</time>
      </trkpt>
      <trkpt lat="52.232357" lon="20.983694">
        <ele>107.316595</ele>
        <time>2026-02-06T14:04:21.687Z</time>
      </trkpt>
      <trkpt lat="52.232456" lon="20.983909">
        <ele>107.267255</ele>
        <time>2026-02-06T14:04:33.149Z</time>
      </trkpt>
      <trkpt lat="52.232550" lon="20.984048">
        <ele>107.229273</ele>
        <time>2026-02-06T14:04:41.963Z</time>
      </trkpt>
      <trkpt lat="52.232666" lon="20.984178">
        <ele>107.187136</ele>
        <time>2026-02-06T14:04:51.694Z</time>
      </trkpt>
      <trkpt lat="52.232550" lon="20.984048">
        <ele>107.144998</ele>
        <time>2026-02-06T14:05:01.424Z</time>
      </trkpt>
      <trkpt lat="52.232456" lon="20.983909">
        <ele>107.107016</ele>
        <time>2026-02-06T14:05:10.239Z</time>
      </trkpt>
      <trkpt lat="52.232357" lon="20.983694">
        <ele>107.057677</ele>
        <time>2026-02-06T14:05:21.701Z</time>
      </trkpt>
      <trkpt lat="52.232140" lon="20.983617">
        <ele>107.151258</ele>
        <time>2026-02-06T14:05:37.165Z</time>
      </trkpt>
      <trkpt lat="52.232005" lon="20.983659">
        <ele>107.288347</ele>
        <time>2026-02-06T14:05:46.703Z</time>
      </trkpt>
      <trkpt lat="52.231917" lon="20.983626">
        <ele>107.378415</ele>
        <time>2026-02-06T14:05:53.026Z</time>
      </trkpt>
      <trkpt lat="52.231779" lon="20.983743">
        <ele>107.533526</ele>
        <time>2026-02-06T14:06:03.819Z</time>
      </trkpt>
      <trkpt lat="52.231669" lon="20.983838">
        <ele>107.657658</ele>
        <time>2026-02-06T14:06:12.435Z</time>
      </trkpt>
      <trkpt lat="52.231634" lon="20.983870">
        <ele>107.697673</ele>
        <time>2026-02-06T14:06:15.264Z</time>
      </trkpt>
      <trkpt lat="52.231618" lon="20.983818">
        <ele>107.733226</ele>
        <time>2026-02-06T14:06:16.241Z</time>
      </trkpt>
      <trkpt lat="52.231569" lon="20.983863">
        <ele>107.789307</ele>
        <time>2026-02-06T14:06:17.702Z</time>
      </trkpt>
      <trkpt lat="52.231409" lon="20.984017">
        <ele>107.974579</ele>
        <time>2026-02-06T14:06:22.450Z</time>
      </trkpt>
      <trkpt lat="52.231052" lon="20.984378">
        <ele>108.393464</ele>
        <time>2026-02-06T14:06:34.239Z</time>
      </trkpt>
      <trkpt lat="52.230873" lon="20.984634">
        <ele>108.630836</ele>
        <time>2026-02-06T14:06:40.334Z</time>
      </trkpt>
      <trkpt lat="52.230846" lon="20.984687">
        <ele>108.672955</ele>
        <time>2026-02-06T14:06:41.370Z</time>
      </trkpt>
      <trkpt lat="52.230796" lon="20.984613">
        <ele>108.740273</ele>
        <time>2026-02-06T14:06:42.864Z</time>
      </trkpt>
      <trkpt lat="52.230772" lon="20.984489">
        <ele>108.819725</ele>
        <time>2026-02-06T14:06:44.794Z</time>
      </trkpt>
      <trkpt lat="52.230752" lon="20.984385">
        <ele>108.855730</ele>
        <time>2026-02-06T14:06:46.212Z</time>
      </trkpt>
      <trkpt lat="52.230709" lon="20.984158">
        <ele>108.931500</ele>
        <time>2026-02-06T14:06:49.385Z</time>
      </trkpt>
      <trkpt lat="52.230691" lon="20.984070">
        <ele>108.961085</ele>
        <time>2026-02-06T14:06:50.631Z</time>
      </trkpt>
      <trkpt lat="52.230648" lon="20.983853">
        <ele>109.033815</ele>
        <time>2026-02-06T14:06:53.570Z</time>
      </trkpt>
      <trkpt lat="52.230627" lon="20.983752">
        <ele>109.067827</ele>
        <time>2026-02-06T14:06:54.977Z</time>
      </trkpt>
      <trkpt lat="52.230594" lon="20.983586">
        <ele>109.123481</ele>
        <time>2026-02-06T14:06:57.214Z</time>
      </trkpt>
      <trkpt lat="52.230567" lon="20.983445">
        <ele>109.170590</ele>
        <time>2026-02-06T14:06:59.187Z</time>
      </trkpt>
      <trkpt lat="52.230494" lon="20.983511">
        <ele>109.214035</ele>
        <time>2026-02-06T14:07:01.093Z</time>
      </trkpt>
      <trkpt lat="52.230395" lon="20.983591">
        <ele>109.271546</ele>
        <time>2026-02-06T14:07:03.634Z</time>
      </trkpt>
      <trkpt lat="52.230342" lon="20.983633">
        <ele>109.302219</ele>
        <time>2026-02-06T14:07:05.030Z</time>
      </trkpt>
      <trkpt lat="52.230220" lon="20.983731">
        <ele>109.373009</ele>
        <time>2026-02-06T14:07:08.114Z</time>
      </trkpt>
      <trkpt lat="52.230167" lon="20.983774">
        <ele>109.403822</ele>
        <time>2026-02-06T14:07:09.496Z</time>
      </trkpt>
      <trkpt lat="52.230036" lon="20.983879">
        <ele>109.479802</ele>
        <time>2026-02-06T14:07:13.280Z</time>
      </trkpt>
      <trkpt lat="52.229990" lon="20.983889">
        <ele>109.503963</ele>
        <time>2026-02-06T14:07:14.539Z</time>
      </trkpt>
      <trkpt lat="52.229913" lon="20.983906">
        <ele>109.544417</ele>
        <time>2026-02-06T14:07:16.725Z</time>
      </trkpt>
      <trkpt lat="52.229851" lon="20.983943">
        <ele>109.578786</ele>
        <time>2026-02-06T14:07:18.631Z</time>
      </trkpt>
      <trkpt lat="52.229851" lon="20.984122">
        <ele>109.635868</ele>
        <time>2026-02-06T14:07:21.608Z</time>
      </trkpt>
      <trkpt lat="52.229813" lon="20.984256">
        <ele>109.682957</ele>
        <time>2026-02-06T14:07:23.978Z</time>
      </trkpt>
      <trkpt lat="52.229831" lon="20.984296">
        <ele>109.698785</ele>
        <time>2026-02-06T14:07:24.799Z</time>
      </trkpt>
      <trkpt lat="52.229871" lon="20.984420">
        <ele>109.743477</ele>
        <time>2026-02-06T14:07:27.075Z</time>
      </trkpt>
      <trkpt lat="52.229895" lon="20.984496">
        <ele>109.789683</ele>
        <time>2026-02-06T14:07:28.379Z</time>
      </trkpt>
      <trkpt lat="52.229961" lon="20.984706">
        <ele>109.984090</ele>
        <time>2026-02-06T14:07:32.129Z</time>
      </trkpt>
      <trkpt lat="52.229987" lon="20.984787">
        <ele>110.059412</ele>
        <time>2026-02-06T14:07:33.651Z</time>
      </trkpt>
      <trkpt lat="52.230056" lon="20.985017">
        <ele>110.270353</ele>
        <time>2026-02-06T14:07:37.696Z</time>
      </trkpt>
      <trkpt lat="52.230078" lon="20.985111">
        <ele>110.353235</ele>
        <time>2026-02-06T14:07:39.260Z</time>
      </trkpt>
      <trkpt lat="52.230101" lon="20.985205">
        <ele>110.436607</ele>
        <time>2026-02-06T14:07:40.917Z</time>
      </trkpt>
      <trkpt lat="52.230111" lon="20.985310">
        <ele>110.524128</ele>
        <time>2026-02-06T14:07:42.666Z</time>
      </trkpt>
      <trkpt lat="52.230170" lon="20.985297">
        <ele>110.604187</ele>
        <time>2026-02-06T14:07:44.264Z</time>
      </trkpt>
      <trkpt lat="52.230207" lon="20.985373">
        <ele>110.684149</ele>
        <time>2026-02-06T14:07:45.950Z</time>
      </trkpt>
      <trkpt lat="52.230354" lon="20.985654">
        <ele>110.988520</ele>
        <time>2026-02-06T14:07:52.539Z</time>
      </trkpt>
      <trkpt lat="52.230548" lon="20.986557">
        <ele>111.776690</ele>
        <time>2026-02-06T14:08:09.670Z</time>
      </trkpt>
      <trkpt lat="52.230554" lon="20.986596">
        <ele>111.809809</ele>
        <time>2026-02-06T14:08:10.410Z</time>
      </trkpt>
      <trkpt lat="52.230561" lon="20.986633">
        <ele>111.841704</ele>
        <time>2026-02-06T14:08:11.079Z</time>
      </trkpt>
      <trkpt lat="52.230612" lon="20.986778">
        <ele>111.979422</ele>
        <time>2026-02-06T14:08:14.046Z</time>
      </trkpt>
      <trkpt lat="52.230824" lon="20.987762">
        <ele>112.545367</ele>
        <time>2026-02-06T14:08:30.955Z</time>
      </trkpt>
      <trkpt lat="52.231108" lon="20.989183">
        <ele>113.230475</ele>
        <time>2026-02-06T14:08:54.559Z</time>
      </trkpt>
      <trkpt lat="52.231144" lon="20.989418">
        <ele>113.341504</ele>
        <time>2026-02-06T14:08:57.963Z</time>
      </trkpt>
      <trkpt lat="52.231192" lon="20.989590">
        <ele>113.428136</ele>
        <time>2026-02-06T14:09:00.570Z</time>
      </trkpt>
      <trkpt lat="52.231230" lon="20.989760">
        <ele>113.511082</ele>
        <time>2026-02-06T14:09:03.086Z</time>
      </trkpt>
      <trkpt lat="52.231500" lon="20.991087">
        <ele>113.258302</ele>
        <time>2026-02-06T14:09:21.124Z</time>
      </trkpt>
      <trkpt lat="52.231629" lon="20.991947">
        <ele>113.087071</ele>
        <time>2026-02-06T14:09:32.790Z</time>
      </trkpt>
      <trkpt lat="52.231687" lon="20.992346">
        <ele>113.007765</ele>
        <time>2026-02-06T14:09:37.973Z</time>
      </trkpt>
      <trkpt lat="52.231691" lon="20.992405">
        <ele>112.996285</ele>
        <time>2026-02-06T14:09:38.725Z</time>
      </trkpt>
      <trkpt lat="52.231704" lon="20.992509">
        <ele>112.975758</ele>
        <time>2026-02-06T14:09:39.970Z</time>
      </trkpt>
      <trkpt lat="52.231713" lon="20.992551">
        <ele>112.967153</ele>
        <time>2026-02-06T14:09:40.503Z</time>
      </trkpt>
      <trkpt lat="52.231723" lon="20.992596">
        <ele>112.957896</ele>
        <time>2026-02-06T14:09:41.097Z</time>
      </trkpt>
      <trkpt lat="52.231730" lon="20.992622">
        <ele>112.947820</ele>
        <time>2026-02-06T14:09:41.455Z</time>
      </trkpt>
      <trkpt lat="52.231744" lon="20.992685">
        <ele>112.916038</ele>
        <time>2026-02-06T14:09:42.265Z</time>
      </trkpt>
      <trkpt lat="52.231762" lon="20.992761">
        <ele>112.877397</ele>
        <time>2026-02-06T14:09:43.217Z</time>
      </trkpt>
      <trkpt lat="52.231773" lon="20.992803">
        <ele>112.855735</ele>
        <time>2026-02-06T14:09:43.759Z</time>
      </trkpt>
      <trkpt lat="52.231787" lon="20.992875">
        <ele>112.819912</ele>
        <time>2026-02-06T14:09:44.729Z</time>
      </trkpt>
      <trkpt lat="52.231869" lon="20.993401">
        <ele>112.562521</ele>
        <time>2026-02-06T14:09:51.198Z</time>
      </trkpt>
      <trkpt lat="52.232007" lon="20.993949">
        <ele>112.281542</ele>
        <time>2026-02-06T14:09:58.184Z</time>
      </trkpt>
      <trkpt lat="52.232063" lon="20.994112">
        <ele>112.192915</ele>
        <time>2026-02-06T14:10:00.381Z</time>
      </trkpt>
      <trkpt lat="52.232354" lon="20.995601">
        <ele>111.556325</ele>
        <time>2026-02-06T14:10:19.395Z</time>
      </trkpt>
      <trkpt lat="52.232346" lon="20.995605">
        <ele>111.555940</ele>
        <time>2026-02-06T14:10:19.973Z</time>
      </trkpt>
      <trkpt lat="52.232320" lon="20.995619">
        <ele>111.554683</ele>
        <time>2026-02-06T14:10:21.930Z</time>
      </trkpt>
      <trkpt lat="52.232216" lon="20.995088">
        <ele>111.538996</ele>
        <time>2026-02-06T14:10:45.661Z</time>
      </trkpt>
      <trkpt lat="52.232320" lon="20.995619">
        <ele>111.523310</ele>
        <time>2026-02-06T14:11:09.392Z</time>
      </trkpt>
      <trkpt lat="52.232346" lon="20.995605">
        <ele>111.522052</ele>
        <time>2026-02-06T14:11:11.348Z</time>
      </trkpt>
      <trkpt lat="52.232354" lon="20.995601">
        <ele>111.521668</ele>
        <time>2026-02-06T14:11:11.926Z</time>
      </trkpt>
      <trkpt lat="52.232377" lon="20.995715">
        <ele>111.518290</ele>
        <time>2026-02-06T14:11:13.791Z</time>
      </trkpt>
      <trkpt lat="52.232385" lon="20.995757">
        <ele>111.517053</ele>
        <time>2026-02-06T14:11:14.452Z</time>
      </trkpt>
      <trkpt lat="52.232393" lon="20.995795">
        <ele>111.515922</ele>
        <time>2026-02-06T14:11:15.064Z</time>
      </trkpt>
      <trkpt lat="52.232399" lon="20.995827">
        <ele>111.514980</ele>
        <time>2026-02-06T14:11:15.596Z</time>
      </trkpt>
      <trkpt lat="52.232405" lon="20.995859">
        <ele>111.514039</ele>
        <time>2026-02-06T14:11:16.171Z</time>
      </trkpt>
      <trkpt lat="52.232411" lon="20.995889">
        <ele>111.513151</ele>
        <time>2026-02-06T14:11:16.653Z</time>
      </trkpt>
      <trkpt lat="52.232698" lon="20.997398">
        <ele>111.593597</ele>
        <time>2026-02-06T14:11:37.902Z</time>
      </trkpt>
      <trkpt lat="52.232711" lon="20.997618">
        <ele>111.654355</ele>
        <time>2026-02-06T14:11:40.760Z</time>
      </trkpt>
      <trkpt lat="52.232680" lon="20.997790">
        <ele>111.703642</ele>
        <time>2026-02-06T14:11:43.215Z</time>
      </trkpt>
      <trkpt lat="52.232666" lon="20.997845">
        <ele>111.720015</ele>
        <time>2026-02-06T14:11:44.054Z</time>
      </trkpt>
      <trkpt lat="52.232610" lon="20.998077">
        <ele>111.788565</ele>
        <time>2026-02-06T14:11:47.430Z</time>
      </trkpt>
      <trkpt lat="52.232581" lon="20.998171">
        <ele>111.817498</ele>
        <time>2026-02-06T14:11:48.992Z</time>
      </trkpt>
      <trkpt lat="52.232484" lon="20.998331">
        <ele>111.879386</ele>
        <time>2026-02-06T14:11:52.464Z</time>
      </trkpt>
      <trkpt lat="52.232257" lon="20.998577">
        <ele>112.001673</ele>
        <time>2026-02-06T14:12:00.124Z</time>
      </trkpt>
      <trkpt lat="52.231964" lon="20.998751">
        <ele>112.141611</ele>
        <time>2026-02-06T14:12:08.561Z</time>
      </trkpt>
      <trkpt lat="52.231848" lon="20.998818">
        <ele>112.196839</ele>
        <time>2026-02-06T14:12:11.467Z</time>
      </trkpt>
      <trkpt lat="52.231839" lon="20.998803">
        <ele>112.202611</ele>
        <time>2026-02-06T14:12:11.812Z</time>
      </trkpt>
      <trkpt lat="52.231729" lon="20.998896">
        <ele>112.258210</ele>
        <time>2026-02-06T14:12:14.635Z</time>
      </trkpt>
      <trkpt lat="52.231647" lon="20.998949">
        <ele>112.292059</ele>
        <time>2026-02-06T14:12:16.666Z</time>
      </trkpt>
      <trkpt lat="52.231391" lon="20.999119">
        <ele>112.346367</ele>
        <time>2026-02-06T14:12:22.432Z</time>
      </trkpt>
      <trkpt lat="52.231266" lon="20.999169">
        <ele>112.371657</ele>
        <time>2026-02-06T14:12:25.263Z</time>
      </trkpt>
      <trkpt lat="52.231177" lon="20.999268">
        <ele>112.392820</ele>
        <time>2026-02-06T14:12:27.843Z</time>
      </trkpt>
      <trkpt lat="52.230388" lon="20.999819">
        <ele>112.561453</ele>
        <time>2026-02-06T14:12:50.462Z</time>
      </trkpt>
      <trkpt lat="52.230366" lon="20.999835">
        <ele>112.566185</ele>
        <time>2026-02-06T14:12:51.028Z</time>
      </trkpt>
      <trkpt lat="52.230321" lon="20.999868">
        <ele>112.575879</ele>
        <time>2026-02-06T14:12:52.067Z</time>
      </trkpt>
      <trkpt lat="52.230292" lon="20.999889">
        <ele>112.582113</ele>
        <time>2026-02-06T14:12:52.653Z</time>
      </trkpt>
      <trkpt lat="52.229818" lon="21.000209">
        <ele>112.631531</ele>
        <time>2026-02-06T14:13:01.741Z</time>
      </trkpt>
      <trkpt lat="52.229785" lon="21.000228">
        <ele>112.629969</ele>
        <time>2026-02-06T14:13:02.466Z</time>
      </trkpt>
      <trkpt lat="52.229757" lon="21.000243">
        <ele>112.628654</ele>
        <time>2026-02-06T14:13:03.011Z</time>
      </trkpt>
      <trkpt lat="52.229633" lon="21.000316">
        <ele>112.622769</ele>
        <time>2026-02-06T14:13:05.826Z</time>
      </trkpt>
      <trkpt lat="52.229609" lon="21.000332">
        <ele>112.621612</ele>
        <time>2026-02-06T14:13:06.392Z</time>
      </trkpt>
      <trkpt lat="52.229575" lon="21.000353">
        <ele>112.619989</ele>
        <time>2026-02-06T14:13:07.232Z</time>
      </trkpt>
      <trkpt lat="52.229493" lon="21.000407">
        <ele>112.616042</ele>
        <time>2026-02-06T14:13:09.246Z</time>
      </trkpt>
      <trkpt lat="52.229265" lon="21.000470">
        <ele>112.605719</ele>
        <time>2026-02-06T14:13:15.119Z</time>
      </trkpt>
      <trkpt lat="52.229239" lon="21.000487">
        <ele>112.604468</ele>
        <time>2026-02-06T14:13:15.757Z</time>
      </trkpt>
      <trkpt lat="52.229225" lon="21.000428">
        <ele>112.602738</ele>
        <time>2026-02-06T14:13:16.799Z</time>
      </trkpt>
      <trkpt lat="52.229200" lon="21.000445">
        <ele>112.601529</ele>
        <time>2026-02-06T14:13:18.732Z</time>
      </trkpt>
      <trkpt lat="52.229177" lon="21.000459">
        <ele>112.600433</ele>
        <time>2026-02-06T14:13:20.406Z</time>
      </trkpt>
      <trkpt lat="52.229055" lon="21.000536">
        <ele>112.594594</ele>
        <time>2026-02-06T14:13:29.522Z</time>
      </trkpt>
      <trkpt lat="52.229023" lon="21.000404">
        <ele>112.590712</ele>
        <time>2026-02-06T14:13:35.587Z</time>
      </trkpt>
      <trkpt lat="52.229017" lon="21.000381">
        <ele>112.590029</ele>
        <time>2026-02-06T14:13:36.649Z</time>
      </trkpt>
      <trkpt lat="52.229007" lon="21.000367">
        <ele>112.589441</ele>
        <time>2026-02-06T14:13:37.545Z</time>
      </trkpt>
      <trkpt lat="52.228979" lon="21.000331">
        <ele>112.587850</ele>
        <time>2026-02-06T14:13:40.022Z</time>
      </trkpt>
      <trkpt lat="52.229007" lon="21.000367">
        <ele>112.586259</ele>
        <time>2026-02-06T14:13:42.498Z</time>
      </trkpt>
      <trkpt lat="52.229017" lon="21.000381">
        <ele>112.585671</ele>
        <time>2026-02-06T14:13:43.395Z</time>
      </trkpt>
      <trkpt lat="52.229023" lon="21.000404">
        <ele>112.584987</ele>
        <time>2026-02-06T14:13:44.456Z</time>
      </trkpt>
      <trkpt lat="52.229055" lon="21.000536">
        <ele>112.581105</ele>
        <time>2026-02-06T14:13:50.522Z</time>
      </trkpt>
      <trkpt lat="52.229177" lon="21.000459">
        <ele>112.575266</ele>
        <time>2026-02-06T14:13:59.638Z</time>
      </trkpt>
      <trkpt lat="52.229200" lon="21.000445">
        <ele>112.574170</ele>
        <time>2026-02-06T14:14:01.311Z</time>
      </trkpt>
      <trkpt lat="52.229225" lon="21.000428">
        <ele>112.572961</ele>
        <time>2026-02-06T14:14:03.245Z</time>
      </trkpt>
      <trkpt lat="52.229239" lon="21.000487">
        <ele>112.571231</ele>
        <time>2026-02-06T14:14:03.952Z</time>
      </trkpt>
      <trkpt lat="52.229213" lon="21.000503">
        <ele>112.569991</ele>
        <time>2026-02-06T14:14:04.456Z</time>
      </trkpt>
      <trkpt lat="52.227971" lon="21.001280">
        <ele>113.437609</ele>
        <time>2026-02-06T14:14:38.712Z</time>
      </trkpt>
      <trkpt lat="52.227823" lon="21.001315">
        <ele>113.554377</ele>
        <time>2026-02-06T14:14:42.624Z</time>
      </trkpt>
      <trkpt lat="52.227754" lon="21.001337">
        <ele>113.609272</ele>
        <time>2026-02-06T14:14:44.508Z</time>
      </trkpt>
      <trkpt lat="52.227714" lon="21.001349">
        <ele>113.641028</ele>
        <time>2026-02-06T14:14:45.608Z</time>
      </trkpt>
      <trkpt lat="52.227656" lon="21.001376">
        <ele>113.688121</ele>
        <time>2026-02-06T14:14:47.276Z</time>
      </trkpt>
      <trkpt lat="52.227600" lon="21.001408">
        <ele>113.734449</ele>
        <time>2026-02-06T14:14:48.945Z</time>
      </trkpt>
      <trkpt lat="52.227498" lon="21.001488">
        <ele>113.822807</ele>
        <time>2026-02-06T14:14:52.054Z</time>
      </trkpt>
      <trkpt lat="52.227426" lon="21.001551">
        <ele>113.886592</ele>
        <time>2026-02-06T14:14:54.173Z</time>
      </trkpt>
      <trkpt lat="52.227381" lon="21.001591">
        <ele>113.926600</ele>
        <time>2026-02-06T14:14:55.487Z</time>
      </trkpt>
      <trkpt lat="52.227212" lon="21.001833">
        <ele>114.010960</ele>
        <time>2026-02-06T14:15:00.908Z</time>
      </trkpt>
      <trkpt lat="52.227055" lon="21.001957">
        <ele>114.056487</ele>
        <time>2026-02-06T14:15:05.251Z</time>
      </trkpt>
      <trkpt lat="52.226957" lon="21.002025">
        <ele>114.084283</ele>
        <time>2026-02-06T14:15:08.044Z</time>
      </trkpt>
      <trkpt lat="52.226807" lon="21.002147">
        <ele>114.128029</ele>
        <time>2026-02-06T14:15:12.390Z</time>
      </trkpt>
      <trkpt lat="52.226702" lon="21.002159">
        <ele>114.155505</ele>
        <time>2026-02-06T14:15:15.014Z</time>
      </trkpt>
      <trkpt lat="52.226659" lon="21.002177">
        <ele>114.167092</ele>
        <time>2026-02-06T14:15:15.893Z</time>
      </trkpt>
      <trkpt lat="52.226640" lon="21.002191">
        <ele>114.172534</ele>
        <time>2026-02-06T14:15:16.314Z</time>
      </trkpt>
      <trkpt lat="52.226623" lon="21.002204">
        <ele>114.177434</ele>
        <time>2026-02-06T14:15:16.707Z</time>
      </trkpt>
      <trkpt lat="52.226602" lon="21.002247">
        <ele>114.186227</ele>
        <time>2026-02-06T14:15:17.463Z</time>
      </trkpt>
      <trkpt lat="52.226636" lon="21.002370">
        <ele>114.207804</ele>
        <time>2026-02-06T14:15:19.065Z</time>
      </trkpt>
      <trkpt lat="52.226668" lon="21.002425">
        <ele>114.219933</ele>
        <time>2026-02-06T14:15:20.070Z</time>
      </trkpt>
      <trkpt lat="52.226761" lon="21.002878">
        <ele>114.296326</ele>
        <time>2026-02-06T14:15:26.262Z</time>
      </trkpt>
      <trkpt lat="52.226753" lon="21.002970">
        <ele>114.311183</ele>
        <time>2026-02-06T14:15:27.594Z</time>
      </trkpt>
      <trkpt lat="52.226774" lon="21.003070">
        <ele>114.328086</ele>
        <time>2026-02-06T14:15:28.919Z</time>
      </trkpt>
      <trkpt lat="52.226839" lon="21.003377">
        <ele>114.380024</ele>
        <time>2026-02-06T14:15:33.408Z</time>
      </trkpt>
      <trkpt lat="52.226879" lon="21.003453">
        <ele>114.396045</ele>
        <time>2026-02-06T14:15:34.873Z</time>
      </trkpt>
      <trkpt lat="52.227068" lon="21.004341">
        <ele>114.549678</ele>
        <time>2026-02-06T14:15:47.851Z</time>
      </trkpt>
      <trkpt lat="52.227124" lon="21.004602">
        <ele>114.595211</ele>
        <time>2026-02-06T14:15:51.487Z</time>
      </trkpt>
      <trkpt lat="52.227385" lon="21.005831">
        <ele>114.809379</ele>
        <time>2026-02-06T14:16:12.047Z</time>
      </trkpt>
      <trkpt lat="52.227410" lon="21.005945">
        <ele>114.829315</ele>
        <time>2026-02-06T14:16:13.768Z</time>
      </trkpt>
      <trkpt lat="52.227460" lon="21.005913">
        <ele>114.843751</ele>
        <time>2026-02-06T14:16:15.005Z</time>
      </trkpt>
      <trkpt lat="52.227510" lon="21.005881">
        <ele>114.858187</ele>
        <time>2026-02-06T14:16:16.216Z</time>
      </trkpt>
      <trkpt lat="52.227609" lon="21.005824">
        <ele>114.886404</ele>
        <time>2026-02-06T14:16:18.645Z</time>
      </trkpt>
      <trkpt lat="52.228095" lon="21.005540">
        <ele>114.444770</ele>
        <time>2026-02-06T14:16:29.536Z</time>
      </trkpt>
      <trkpt lat="52.228116" lon="21.005528">
        <ele>114.418310</ele>
        <time>2026-02-06T14:16:29.957Z</time>
      </trkpt>
      <trkpt lat="52.228164" lon="21.005566">
        <ele>114.354870</ele>
        <time>2026-02-06T14:16:30.949Z</time>
      </trkpt>
      <trkpt lat="52.228245" lon="21.005489">
        <ele>114.243403</ele>
        <time>2026-02-06T14:16:32.720Z</time>
      </trkpt>
      <trkpt lat="52.228238" lon="21.005456">
        <ele>114.217964</ele>
        <time>2026-02-06T14:16:33.120Z</time>
      </trkpt>
      <trkpt lat="52.228230" lon="21.005421">
        <ele>114.190752</ele>
        <time>2026-02-06T14:16:33.542Z</time>
      </trkpt>
      <trkpt lat="52.228215" lon="21.005349">
        <ele>114.135355</ele>
        <time>2026-02-06T14:16:34.345Z</time>
      </trkpt>
      <trkpt lat="52.228238" lon="21.005285">
        <ele>114.081304</ele>
        <time>2026-02-06T14:16:35.253Z</time>
      </trkpt>
      <trkpt lat="52.228281" lon="21.005252">
        <ele>114.024799</ele>
        <time>2026-02-06T14:16:36.143Z</time>
      </trkpt>
      <trkpt lat="52.228321" lon="21.005230">
        <ele>113.974603</ele>
        <time>2026-02-06T14:16:36.845Z</time>
      </trkpt>
      <trkpt lat="52.228366" lon="21.005384">
        <ele>113.850314</ele>
        <time>2026-02-06T14:16:38.893Z</time>
      </trkpt>
      <trkpt lat="52.228457" lon="21.005668">
        <ele>113.616846</ele>
        <time>2026-02-06T14:16:42.785Z</time>
      </trkpt>
      <trkpt lat="52.228632" lon="21.005573">
        <ele>113.397527</ele>
        <time>2026-02-06T14:16:46.312Z</time>
      </trkpt>
      <trkpt lat="52.228758" lon="21.005501">
        <ele>113.238771</ele>
        <time>2026-02-06T14:16:48.671Z</time>
      </trkpt>
      <trkpt lat="52.228776" lon="21.005580">
        <ele>113.177374</ele>
        <time>2026-02-06T14:16:49.590Z</time>
      </trkpt>
      <trkpt lat="52.228758" lon="21.005501">
        <ele>113.115977</ele>
        <time>2026-02-06T14:16:50.465Z</time>
      </trkpt>
      <trkpt lat="52.228808" lon="21.005473">
        <ele>113.053114</ele>
        <time>2026-02-06T14:16:51.296Z</time>
      </trkpt>
      <trkpt lat="52.229210" lon="21.005245">
        <ele>112.623944</ele>
        <time>2026-02-06T14:16:58.537Z</time>
      </trkpt>
      <trkpt lat="52.229496" lon="21.005083">
        <ele>112.383237</ele>
        <time>2026-02-06T14:17:03.909Z</time>
      </trkpt>
      <trkpt lat="52.229821" lon="21.004899">
        <ele>112.109720</ele>
        <time>2026-02-06T14:17:10.426Z</time>
      </trkpt>
      <trkpt lat="52.229830" lon="21.004894">
        <ele>112.102160</ele>
        <time>2026-02-06T14:17:10.626Z</time>
      </trkpt>
      <trkpt lat="52.229875" lon="21.004868">
        <ele>112.064205</ele>
        <time>2026-02-06T14:17:11.615Z</time>
      </trkpt>
      <trkpt lat="52.230021" lon="21.004772">
        <ele>111.939053</ele>
        <time>2026-02-06T14:17:14.992Z</time>
      </trkpt>
      <trkpt lat="52.230428" lon="21.004552">
        <ele>111.598155</ele>
        <time>2026-02-06T14:17:24.711Z</time>
      </trkpt>
      <trkpt lat="52.230726" lon="21.004380">
        <ele>111.349217</ele>
        <time>2026-02-06T14:17:31.866Z</time>
      </trkpt>
      <trkpt lat="52.230844" lon="21.004312">
        <ele>111.360088</ele>
        <time>2026-02-06T14:17:34.792Z</time>
      </trkpt>
      <trkpt lat="52.231740" lon="21.003795">
        <ele>111.442647</ele>
        <time>2026-02-06T14:17:57.434Z</time>
      </trkpt>
      <trkpt lat="52.231866" lon="21.003722">
        <ele>111.454262</ele>
        <time>2026-02-06T14:18:00.447Z</time>
      </trkpt>
      <trkpt lat="52.232284" lon="21.003481">
        <ele>111.492773</ele>
        <time>2026-02-06T14:18:10.033Z</time>
      </trkpt>
      <trkpt lat="52.232561" lon="21.003314">
        <ele>111.499451</ele>
        <time>2026-02-06T14:18:16.188Z</time>
      </trkpt>
      <trkpt lat="52.232793" lon="21.003184">
        <ele>111.490095</ele>
        <time>2026-02-06T14:18:21.267Z</time>
      </trkpt>
      <trkpt lat="52.232836" lon="21.003160">
        <ele>111.488362</ele>
        <time>2026-02-06T14:18:22.209Z</time>
      </trkpt>
      <trkpt lat="52.232967" lon="21.003086">
        <ele>111.483074</ele>
        <time>2026-02-06T14:18:25.093Z</time>
      </trkpt>
      <trkpt lat="52.233330" lon="21.002881">
        <ele>111.468423</ele>
        <time>2026-02-06T14:18:33.015Z</time>
      </trkpt>
      <trkpt lat="52.233646" lon="21.002890">
        <ele>111.456367</ele>
        <time>2026-02-06T14:18:40.244Z</time>
      </trkpt>
      <trkpt lat="52.233857" lon="21.002766">
        <ele>111.447813</ele>
        <time>2026-02-06T14:18:45.534Z</time>
      </trkpt>
      <trkpt lat="52.233895" lon="21.002744">
        <ele>111.446275</ele>
        <time>2026-02-06T14:18:46.506Z</time>
      </trkpt>
      <trkpt lat="52.233947" lon="21.002726">
        <ele>111.444248</ele>
        <time>2026-02-06T14:18:47.795Z</time>
      </trkpt>
      <trkpt lat="52.234017" lon="21.002683">
        <ele>111.441395</ele>
        <time>2026-02-06T14:18:49.553Z</time>
      </trkpt>
      <trkpt lat="52.234091" lon="21.002641">
        <ele>111.438407</ele>
        <time>2026-02-06T14:18:51.284Z</time>
      </trkpt>
      <trkpt lat="52.234155" lon="21.002605">
        <ele>111.454360</ele>
        <time>2026-02-06T14:18:52.746Z</time>
      </trkpt>
      <trkpt lat="52.234095" lon="21.002361">
        <ele>111.589214</ele>
        <time>2026-02-06T14:18:56.281Z</time>
      </trkpt>
      <trkpt lat="52.234123" lon="21.002345">
        <ele>111.614057</ele>
        <time>2026-02-06T14:18:56.990Z</time>
      </trkpt>
      <trkpt lat="52.234252" lon="21.002274">
        <ele>111.728060</ele>
        <time>2026-02-06T14:19:00.123Z</time>
      </trkpt>
      <trkpt lat="52.234289" lon="21.002237">
        <ele>111.764395</ele>
        <time>2026-02-06T14:19:01.296Z</time>
      </trkpt>
      <trkpt lat="52.234409" lon="21.002159">
        <ele>111.872558</ele>
        <time>2026-02-06T14:19:04.800Z</time>
      </trkpt>
      <trkpt lat="52.234817" lon="21.001924">
        <ele>112.234871</ele>
        <time>2026-02-06T14:19:18.470Z</time>
      </trkpt>
      <trkpt lat="52.234796" lon="21.001802">
        <ele>112.299867</ele>
        <time>2026-02-06T14:19:21.061Z</time>
      </trkpt>
      <trkpt lat="52.234782" lon="21.001740">
        <ele>112.333757</ele>
        <time>2026-02-06T14:19:22.082Z</time>
      </trkpt>
      <trkpt lat="52.234948" lon="21.001645">
        <ele>112.481065</ele>
        <time>2026-02-06T14:19:26.870Z</time>
      </trkpt>
      <trkpt lat="52.235096" lon="21.001562">
        <ele>112.612113</ele>
        <time>2026-02-06T14:19:30.996Z</time>
      </trkpt>
      <trkpt lat="52.235194" lon="21.001876">
        <ele>112.792861</ele>
        <time>2026-02-06T14:19:36.126Z</time>
      </trkpt>
      <trkpt lat="52.235274" lon="21.002131">
        <ele>112.939805</ele>
        <time>2026-02-06T14:19:39.630Z</time>
      </trkpt>
      <trkpt lat="52.235355" lon="21.002317">
        <ele>112.891600</ele>
        <time>2026-02-06T14:19:42.314Z</time>
      </trkpt>
      <trkpt lat="52.235465" lon="21.002531">
        <ele>112.827096</ele>
        <time>2026-02-06T14:19:45.662Z</time>
      </trkpt>
      <trkpt lat="52.235526" lon="21.002590">
        <ele>112.800368</ele>
        <time>2026-02-06T14:19:46.990Z</time>
      </trkpt>
      <trkpt lat="52.235605" lon="21.002595">
        <ele>112.770563</ele>
        <time>2026-02-06T14:19:48.821Z</time>
      </trkpt>
      <trkpt lat="52.235711" lon="21.002697">
        <ele>112.724179</ele>
        <time>2026-02-06T14:19:51.518Z</time>
      </trkpt>
      <trkpt lat="52.236299" lon="21.003019">
        <ele>112.490372</ele>
        <time>2026-02-06T14:20:04.069Z</time>
      </trkpt>
      <trkpt lat="52.236330" lon="21.003034">
        <ele>112.478183</ele>
        <time>2026-02-06T14:20:04.630Z</time>
      </trkpt>
      <trkpt lat="52.236780" lon="21.003198">
        <ele>112.304362</ele>
        <time>2026-02-06T14:20:13.249Z</time>
      </trkpt>
      <trkpt lat="52.237065" lon="21.003287">
        <ele>112.436731</ele>
        <time>2026-02-06T14:20:20.638Z</time>
      </trkpt>
      <trkpt lat="52.237232" lon="21.003335">
        <ele>112.594056</ele>
        <time>2026-02-06T14:20:25.190Z</time>
      </trkpt>
      <trkpt lat="52.237346" lon="21.003355">
        <ele>112.700434</ele>
        <time>2026-02-06T14:20:28.467Z</time>
      </trkpt>
      <trkpt lat="52.237333" lon="21.003030">
        <ele>112.885486</ele>
        <time>2026-02-06T14:20:34.341Z</time>
      </trkpt>
      <trkpt lat="52.237331" lon="21.002965">
        <ele>112.922464</ele>
        <time>2026-02-06T14:20:35.426Z</time>
      </trkpt>
      <trkpt lat="52.237322" lon="21.002586">
        <ele>113.137966</ele>
        <time>2026-02-06T14:20:42.175Z</time>
      </trkpt>
      <trkpt lat="52.237308" lon="21.002338">
        <ele>113.279472</ele>
        <time>2026-02-06T14:20:46.501Z</time>
      </trkpt>
      <trkpt lat="52.237273" lon="21.001733">
        <ele>113.624751</ele>
        <time>2026-02-06T14:20:56.739Z</time>
      </trkpt>
      <trkpt lat="52.237220" lon="21.001319">
        <ele>113.865062</ele>
        <time>2026-02-06T14:21:03.809Z</time>
      </trkpt>
      <trkpt lat="52.237170" lon="21.001066">
        <ele>113.900936</ele>
        <time>2026-02-06T14:21:07.841Z</time>
      </trkpt>
      <trkpt lat="52.237042" lon="21.000475">
        <ele>113.759875</ele>
        <time>2026-02-06T14:21:15.768Z</time>
      </trkpt>
      <trkpt lat="52.236829" lon="20.999842">
        <ele>113.597350</ele>
        <time>2026-02-06T14:21:24.988Z</time>
      </trkpt>
      <trkpt lat="52.236742" lon="20.999606">
        <ele>113.535365</ele>
        <time>2026-02-06T14:21:28.673Z</time>
      </trkpt>
      <trkpt lat="52.236709" lon="20.999509">
        <ele>113.510395</ele>
        <time>2026-02-06T14:21:30.033Z</time>
      </trkpt>
      <trkpt lat="52.236625" lon="20.999277">
        <ele>113.449748</ele>
        <time>2026-02-06T14:21:33.475Z</time>
      </trkpt>
      <trkpt lat="52.236317" lon="20.998448">
        <ele>113.333013</ele>
        <time>2026-02-06T14:21:44.419Z</time>
      </trkpt>
      <trkpt lat="52.236246" lon="20.998229">
        <ele>113.414734</ele>
        <time>2026-02-06T14:21:47.284Z</time>
      </trkpt>
      <trkpt lat="52.236206" lon="20.998091">
        <ele>113.465086</ele>
        <time>2026-02-06T14:21:49.179Z</time>
      </trkpt>
      <trkpt lat="52.236059" lon="20.997499">
        <ele>113.675763</ele>
        <time>2026-02-06T14:21:58.447Z</time>
      </trkpt>
      <trkpt lat="52.236041" lon="20.997417">
        <ele>113.704491</ele>
        <time>2026-02-06T14:21:59.858Z</time>
      </trkpt>
      <trkpt lat="52.236104" lon="20.997386">
        <ele>113.739925</ele>
        <time>2026-02-06T14:22:01.522Z</time>
      </trkpt>
      <trkpt lat="52.236148" lon="20.997322">
        <ele>113.771657</ele>
        <time>2026-02-06T14:22:03.158Z</time>
      </trkpt>
      <trkpt lat="52.236147" lon="20.997252">
        <ele>113.794749</ele>
        <time>2026-02-06T14:22:04.270Z</time>
      </trkpt>
      <trkpt lat="52.236137" lon="20.997192">
        <ele>113.815257</ele>
        <time>2026-02-06T14:22:05.206Z</time>
      </trkpt>
      <trkpt lat="52.236100" lon="20.996963">
        <ele>113.893364</ele>
        <time>2026-02-06T14:22:09.045Z</time>
      </trkpt>
      <trkpt lat="52.236086" lon="20.996874">
        <ele>113.923669</ele>
        <time>2026-02-06T14:22:10.676Z</time>
      </trkpt>
      <trkpt lat="52.236073" lon="20.996793">
        <ele>113.951284</ele>
        <time>2026-02-06T14:22:12.049Z</time>
      </trkpt>
      <trkpt lat="52.236128" lon="20.996769">
        <ele>113.981942</ele>
        <time>2026-02-06T14:22:13.504Z</time>
      </trkpt>
      <trkpt lat="52.236346" lon="20.996649">
        <ele>114.105831</ele>
        <time>2026-02-06T14:22:19.885Z</time>
      </trkpt>
      <trkpt lat="52.236492" lon="20.996638">
        <ele>114.184539</ele>
        <time>2026-02-06T14:22:23.948Z</time>
      </trkpt>
      <trkpt lat="52.237417" lon="20.996236">
        <ele>114.770050</ele>
        <time>2026-02-06T14:22:51.533Z</time>
      </trkpt>
      <trkpt lat="52.237434" lon="20.996229">
        <ele>114.780933</ele>
        <time>2026-02-06T14:22:51.976Z</time>
      </trkpt>
      <trkpt lat="52.237473" lon="20.996213">
        <ele>114.805894</ele>
        <time>2026-02-06T14:22:52.969Z</time>
      </trkpt>
      <trkpt lat="52.238181" lon="20.995897">
        <ele>115.261504</ele>
        <time>2026-02-06T14:23:08.626Z</time>
      </trkpt>
      <trkpt lat="52.238365" lon="20.995725">
        <ele>115.351875</ele>
        <time>2026-02-06T14:23:13.109Z</time>
      </trkpt>
      <trkpt lat="52.238438" lon="20.995687">
        <ele>115.343869</ele>
        <time>2026-02-06T14:23:14.779Z</time>
      </trkpt>
      <trkpt lat="52.238561" lon="20.995640">
        <ele>115.330668</ele>
        <time>2026-02-06T14:23:17.407Z</time>
      </trkpt>
      <trkpt lat="52.238672" lon="20.995605">
        <ele>115.318854</ele>
        <time>2026-02-06T14:23:19.797Z</time>
      </trkpt>
      <trkpt lat="52.238766" lon="20.995636">
        <ele>115.308833</ele>
        <time>2026-02-06T14:23:21.799Z</time>
      </trkpt>
      <trkpt lat="52.239159" lon="20.995511">
        <ele>115.266993</ele>
        <time>2026-02-06T14:23:30.314Z</time>
      </trkpt>
      <trkpt lat="52.239357" lon="20.995382">
        <ele>115.244717</ele>
        <time>2026-02-06T14:23:35.023Z</time>
      </trkpt>
      <trkpt lat="52.239404" lon="20.995340">
        <ele>115.239118</ele>
        <time>2026-02-06T14:23:36.218Z</time>
      </trkpt>
      <trkpt lat="52.239439" lon="20.995308">
        <ele>115.234926</ele>
        <time>2026-02-06T14:23:37.050Z</time>
      </trkpt>
      <trkpt lat="52.239495" lon="20.995259">
        <ele>115.228287</ele>
        <time>2026-02-06T14:23:38.489Z</time>
      </trkpt>
      <trkpt lat="52.239547" lon="20.995213">
        <ele>115.222107</ele>
        <time>2026-02-06T14:23:39.814Z</time>
      </trkpt>
      <trkpt lat="52.239692" lon="20.995084">
        <ele>115.204852</ele>
        <time>2026-02-06T14:23:43.561Z</time>
      </trkpt>
      <trkpt lat="52.239754" lon="20.994982">
        <ele>115.195655</ele>
        <time>2026-02-06T14:23:45.599Z</time>
      </trkpt>
      <trkpt lat="52.240519" lon="20.994316">
        <ele>115.009787</ele>
        <time>2026-02-06T14:24:05.740Z</time>
      </trkpt>
      <trkpt lat="52.240561" lon="20.994281">
        <ele>114.997614</ele>
        <time>2026-02-06T14:24:06.659Z</time>
      </trkpt>
      <trkpt lat="52.240594" lon="20.994253">
        <ele>114.988014</ele>
        <time>2026-02-06T14:24:07.359Z</time>
      </trkpt>
      <trkpt lat="52.240688" lon="20.994172">
        <ele>114.960577</ele>
        <time>2026-02-06T14:24:09.451Z</time>
      </trkpt>
      <trkpt lat="52.241072" lon="20.993838">
        <ele>114.848263</ele>
        <time>2026-02-06T14:24:18.214Z</time>
      </trkpt>
      <trkpt lat="52.241371" lon="20.993633">
        <ele>114.764549</ele>
        <time>2026-02-06T14:24:24.937Z</time>
      </trkpt>
      <trkpt lat="52.241509" lon="20.993512">
        <ele>114.724114</ele>
        <time>2026-02-06T14:24:28.245Z</time>
      </trkpt>
      <trkpt lat="52.241562" lon="20.993466">
        <ele>114.708620</ele>
        <time>2026-02-06T14:24:29.514Z</time>
      </trkpt>
      <trkpt lat="52.241616" lon="20.993370">
        <ele>114.675882</ele>
        <time>2026-02-06T14:24:31.186Z</time>
      </trkpt>
      <trkpt lat="52.241653" lon="20.993339">
        <ele>114.657715</ele>
        <time>2026-02-06T14:24:32.075Z</time>
      </trkpt>
      <trkpt lat="52.241715" lon="20.993286">
        <ele>114.627144</ele>
        <time>2026-02-06T14:24:33.543Z</time>
      </trkpt>
      <trkpt lat="52.241735" lon="20.993271">
        <ele>114.617529</ele>
        <time>2026-02-06T14:24:34.010Z</time>
      </trkpt>
      <trkpt lat="52.241830" lon="20.993195">
        <ele>114.571316</ele>
        <time>2026-02-06T14:24:36.213Z</time>
      </trkpt>
      <trkpt lat="52.241873" lon="20.993160">
        <ele>114.550327</ele>
        <time>2026-02-06T14:24:37.201Z</time>
      </trkpt>
      <trkpt lat="52.241999" lon="20.993056">
        <ele>114.488651</ele>
        <time>2026-02-06T14:24:41.071Z</time>
      </trkpt>
      <trkpt lat="52.242995" lon="20.992191">
        <ele>113.995841</ele>
        <time>2026-02-06T14:25:12.581Z</time>
      </trkpt>
      <trkpt lat="52.243021" lon="20.992169">
        <ele>113.983048</ele>
        <time>2026-02-06T14:25:13.211Z</time>
      </trkpt>
      <trkpt lat="52.243047" lon="20.992147">
        <ele>113.970256</ele>
        <time>2026-02-06T14:25:13.846Z</time>
      </trkpt>
      <trkpt lat="52.244065" lon="20.991286">
        <ele>113.167329</ele>
        <time>2026-02-06T14:25:44.735Z</time>
      </trkpt>
      <trkpt lat="52.244376" lon="20.991018">
        <ele>112.910663</ele>
        <time>2026-02-06T14:25:53.732Z</time>
      </trkpt>
      <trkpt lat="52.244467" lon="20.990966">
        <ele>112.840292</ele>
        <time>2026-02-06T14:25:55.584Z</time>
      </trkpt>
      <trkpt lat="52.244514" lon="20.991016">
        <ele>112.799350</ele>
        <time>2026-02-06T14:25:56.699Z</time>
      </trkpt>
      <trkpt lat="52.244535" lon="20.991080">
        <ele>112.766899</ele>
        <time>2026-02-06T14:25:57.555Z</time>
      </trkpt>
      <trkpt lat="52.244554" lon="20.991136">
        <ele>112.738286</ele>
        <time>2026-02-06T14:25:58.342Z</time>
      </trkpt>
      <trkpt lat="52.244577" lon="20.991208">
        <ele>112.701991</ele>
        <time>2026-02-06T14:25:59.715Z</time>
      </trkpt>
      <trkpt lat="52.244602" lon="20.991285">
        <ele>112.663039</ele>
        <time>2026-02-06T14:26:00.778Z</time>
      </trkpt>
      <trkpt lat="52.244629" lon="20.991366">
        <ele>112.621822</ele>
        <time>2026-02-06T14:26:02.331Z</time>
      </trkpt>
      <trkpt lat="52.244648" lon="20.991423">
        <ele>112.594215</ele>
        <time>2026-02-06T14:26:03.171Z</time>
      </trkpt>
      <trkpt lat="52.244667" lon="20.991481">
        <ele>112.567731</ele>
        <time>2026-02-06T14:26:04.008Z</time>
      </trkpt>
      <trkpt lat="52.244679" lon="20.991512">
        <ele>112.552965</ele>
        <time>2026-02-06T14:26:04.606Z</time>
      </trkpt>
      <trkpt lat="52.244747" lon="20.991489">
        <ele>112.507303</ele>
        <time>2026-02-06T14:26:06.624Z</time>
      </trkpt>
      <trkpt lat="52.244790" lon="20.991450">
        <ele>112.474961</ele>
        <time>2026-02-06T14:26:07.625Z</time>
      </trkpt>
      <trkpt lat="52.244842" lon="20.991401">
        <ele>112.435485</ele>
        <time>2026-02-06T14:26:08.838Z</time>
      </trkpt>
      <trkpt lat="52.244942" lon="20.991278">
        <ele>112.353168</ele>
        <time>2026-02-06T14:26:11.351Z</time>
      </trkpt>
      <trkpt lat="52.245693" lon="20.990607">
        <ele>111.790281</ele>
        <time>2026-02-06T14:26:29.127Z</time>
      </trkpt>
      <trkpt lat="52.245718" lon="20.990583">
        <ele>111.771213</ele>
        <time>2026-02-06T14:26:29.719Z</time>
      </trkpt>
      <trkpt lat="52.245743" lon="20.990561">
        <ele>111.752540</ele>
        <time>2026-02-06T14:26:30.272Z</time>
      </trkpt>
      <trkpt lat="52.245848" lon="20.990468">
        <ele>111.673998</ele>
        <time>2026-02-06T14:26:32.884Z</time>
      </trkpt>
      <trkpt lat="52.245872" lon="20.990467">
        <ele>111.658211</ele>
        <time>2026-02-06T14:26:33.378Z</time>
      </trkpt>
      <trkpt lat="52.245896" lon="20.990465">
        <ele>111.642409</ele>
        <time>2026-02-06T14:26:33.883Z</time>
      </trkpt>
      <trkpt lat="52.245937" lon="20.990481">
        <ele>111.614691</ele>
        <time>2026-02-06T14:26:34.881Z</time>
      </trkpt>
      <trkpt lat="52.246622" lon="20.989887">
        <ele>110.747031</ele>
        <time>2026-02-06T14:26:49.629Z</time>
      </trkpt>
      <trkpt lat="52.246675" lon="20.989784">
        <ele>110.632222</ele>
        <time>2026-02-06T14:26:51.020Z</time>
      </trkpt>
      <trkpt lat="52.247171" lon="20.989344">
        <ele>109.845564</ele>
        <time>2026-02-06T14:27:00.824Z</time>
      </trkpt>
      <trkpt lat="52.247289" lon="20.989240">
        <ele>109.658691</ele>
        <time>2026-02-06T14:27:03.260Z</time>
      </trkpt>
      <trkpt lat="52.247326" lon="20.989210">
        <ele>109.601120</ele>
        <time>2026-02-06T14:27:04.015Z</time>
      </trkpt>
      <trkpt lat="52.247391" lon="20.989179">
        <ele>109.506746</ele>
        <time>2026-02-06T14:27:05.272Z</time>
      </trkpt>
      <trkpt lat="52.247420" lon="20.989165">
        <ele>109.464601</ele>
        <time>2026-02-06T14:27:05.818Z</time>
      </trkpt>
      <trkpt lat="52.247479" lon="20.989111">
        <ele>109.370342</ele>
        <time>2026-02-06T14:27:07.065Z</time>
      </trkpt>
      <trkpt lat="52.247536" lon="20.989058">
        <ele>109.278930</ele>
        <time>2026-02-06T14:27:08.314Z</time>
      </trkpt>
      <trkpt lat="52.247565" lon="20.989024">
        <ele>109.229178</ele>
        <time>2026-02-06T14:27:08.965Z</time>
      </trkpt>
      <trkpt lat="52.247598" lon="20.988982">
        <ele>109.170871</ele>
        <time>2026-02-06T14:27:09.755Z</time>
      </trkpt>
      <trkpt lat="52.247613" lon="20.988968">
        <ele>109.146793</ele>
        <time>2026-02-06T14:27:10.090Z</time>
      </trkpt>
      <trkpt lat="52.247724" lon="20.988868">
        <ele>108.970120</ele>
        <time>2026-02-06T14:27:13.373Z</time>
      </trkpt>
      <trkpt lat="52.247944" lon="20.988678">
        <ele>108.803557</ele>
        <time>2026-02-06T14:27:20.071Z</time>
      </trkpt>
      <trkpt lat="52.249461" lon="20.987355">
        <ele>107.759142</ele>
        <time>2026-02-06T14:28:08.808Z</time>
      </trkpt>
      <trkpt lat="52.249486" lon="20.987334">
        <ele>107.719185</ele>
        <time>2026-02-06T14:28:09.370Z</time>
      </trkpt>
      <trkpt lat="52.249510" lon="20.987313">
        <ele>107.680487</ele>
        <time>2026-02-06T14:28:09.900Z</time>
      </trkpt>
      <trkpt lat="52.249575" lon="20.987254">
        <ele>107.574793</ele>
        <time>2026-02-06T14:28:11.854Z</time>
      </trkpt>
      <trkpt lat="52.250667" lon="20.986318">
        <ele>105.821967</ele>
        <time>2026-02-06T14:28:41.966Z</time>
      </trkpt>
      <trkpt lat="52.250696" lon="20.986292">
        <ele>105.774947</ele>
        <time>2026-02-06T14:28:42.792Z</time>
      </trkpt>
      <trkpt lat="52.250922" lon="20.986097">
        <ele>105.411663</ele>
        <time>2026-02-06T14:28:49.278Z</time>
      </trkpt>
      <trkpt lat="52.251009" lon="20.986101">
        <ele>105.330402</ele>
        <time>2026-02-06T14:28:51.440Z</time>
      </trkpt>
      <trkpt lat="52.251028" lon="20.986084">
        <ele>105.312362</ele>
        <time>2026-02-06T14:28:52.027Z</time>
      </trkpt>
      <trkpt lat="52.251055" lon="20.986060">
        <ele>105.286765</ele>
        <time>2026-02-06T14:28:52.603Z</time>
      </trkpt>
      <trkpt lat="52.251163" lon="20.985959">
        <ele>105.183135</ele>
        <time>2026-02-06T14:28:54.894Z</time>
      </trkpt>
      <trkpt lat="52.251194" lon="20.985931">
        <ele>105.153637</ele>
        <time>2026-02-06T14:28:55.553Z</time>
      </trkpt>
      <trkpt lat="52.251228" lon="20.985881">
        <ele>105.115541</ele>
        <time>2026-02-06T14:28:56.681Z</time>
      </trkpt>
      <trkpt lat="52.251238" lon="20.985815">
        <ele>105.080879</ele>
        <time>2026-02-06T14:28:57.683Z</time>
      </trkpt>
      <trkpt lat="52.251243" lon="20.985699">
        <ele>105.021597</ele>
        <time>2026-02-06T14:28:59.519Z</time>
      </trkpt>
      <trkpt lat="52.251222" lon="20.985636">
        <ele>104.985028</ele>
        <time>2026-02-06T14:29:00.603Z</time>
      </trkpt>
      <trkpt lat="52.251202" lon="20.985573">
        <ele>104.948850</ele>
        <time>2026-02-06T14:29:01.660Z</time>
      </trkpt>
      <trkpt lat="52.251173" lon="20.985486">
        <ele>104.898350</ele>
        <time>2026-02-06T14:29:03.229Z</time>
      </trkpt>
      <trkpt lat="52.251164" lon="20.985458">
        <ele>104.882228</ele>
        <time>2026-02-06T14:29:03.714Z</time>
      </trkpt>
      <trkpt lat="52.251146" lon="20.985402">
        <ele>104.849984</ele>
        <time>2026-02-06T14:29:04.397Z</time>
      </trkpt>
      <trkpt lat="52.251119" lon="20.985319">
        <ele>104.802069</ele>
        <time>2026-02-06T14:29:05.478Z</time>
      </trkpt>
      <trkpt lat="52.251122" lon="20.985257">
        <ele>104.770363</ele>
        <time>2026-02-06T14:29:06.449Z</time>
      </trkpt>
      <trkpt lat="52.251145" lon="20.985239">
        <ele>104.749125</ele>
        <time>2026-02-06T14:29:07.058Z</time>
      </trkpt>
      <trkpt lat="52.251209" lon="20.985221">
        <ele>104.695047</ele>
        <time>2026-02-06T14:29:08.654Z</time>
      </trkpt>
      <trkpt lat="52.251563" lon="20.984912">
        <ele>104.360815</ele>
        <time>2026-02-06T14:29:19.323Z</time>
      </trkpt>
      <trkpt lat="52.251585" lon="20.984809">
        <ele>104.305203</ele>
        <time>2026-02-06T14:29:21.173Z</time>
      </trkpt>
      <trkpt lat="52.251637" lon="20.984756">
        <ele>104.254163</ele>
        <time>2026-02-06T14:29:22.996Z</time>
      </trkpt>
      <trkpt lat="52.251650" lon="20.984744">
        <ele>104.241729</ele>
        <time>2026-02-06T14:29:23.405Z</time>
      </trkpt>
      <trkpt lat="52.251661" lon="20.984734">
        <ele>104.231246</ele>
        <time>2026-02-06T14:29:23.743Z</time>
      </trkpt>
      <trkpt lat="52.252015" lon="20.984460">
        <ele>103.905044</ele>
        <time>2026-02-06T14:29:35.683Z</time>
      </trkpt>
      <trkpt lat="52.252106" lon="20.984349">
        <ele>103.892682</ele>
        <time>2026-02-06T14:29:38.990Z</time>
      </trkpt>
      <trkpt lat="52.252685" lon="20.983846">
        <ele>103.892682</ele>
        <time>2026-02-06T14:29:58.435Z</time>
      </trkpt>
      <trkpt lat="52.252693" lon="20.983807">
        <ele>103.892682</ele>
        <time>2026-02-06T14:29:59.227Z</time>
      </trkpt>
      <trkpt lat="52.252704" lon="20.983767">
        <ele>103.892682</ele>
        <time>2026-02-06T14:30:00.055Z</time>
      </trkpt>
      <trkpt lat="52.252865" lon="20.983628">
        <ele>103.892682</ele>
        <time>2026-02-06T14:30:05.456Z</time>
      </trkpt>
      <trkpt lat="52.252873" lon="20.983621">
        <ele>103.892682</ele>
        <time>2026-02-06T14:30:05.707Z</time>
      </trkpt>
      <trkpt lat="52.252881" lon="20.983614">
        <ele>103.892682</ele>
        <time>2026-02-06T14:30:05.967Z</time>
      </trkpt>
    </trkseg>
  </trk>
</gpx>